createdAt,value
2022-08-24T00:00:40.132Z,67.00
2022-08-24T00:03:11.926Z,67.20
2022-08-24T00:05:40.401Z,68.00
2022-08-24T00:08:08.503Z,68.90
2022-08-24T00:10:36.487Z,68.20
2022-08-24T00:13:04.851Z,68.10
2022-08-24T00:15:33.224Z,68.00
2022-08-24T00:18:01.384Z,68.10
2022-08-24T00:20:31.206Z,67.70
2022-08-24T00:22:59.510Z,68.00
2022-08-24T00:25:27.859Z,68.30
2022-08-24T00:27:56.003Z,68.50
2022-08-24T00:30:24.698Z,68.40
2022-08-24T00:32:54.199Z,68.40
2022-08-24T00:35:22.990Z,68.20
2022-08-24T00:37:53.715Z,69.10
2022-08-24T00:40:28.781Z,69.50
2022-08-24T00:42:58.353Z,69.70
2022-08-24T00:45:27.006Z,69.70
2022-08-24T00:48:00.064Z,69.60
2022-08-24T00:50:35.150Z,69.50
2022-08-24T00:53:07.436Z,69.10
2022-08-24T00:55:38.866Z,69.00
2022-08-24T00:58:11.258Z,69.30
2022-08-24T01:00:49.295Z,69.90
2022-08-24T01:03:18.079Z,69.70
2022-08-24T01:05:46.975Z,69.60
2022-08-24T01:08:18.020Z,69.50
2022-08-24T01:10:49.138Z,69.80
2022-08-24T01:13:18.816Z,69.70
2022-08-24T01:15:50.599Z,69.60
2022-08-24T01:18:53.078Z,69.40
2022-08-24T01:21:24.725Z,69.50
2022-08-24T01:23:56.191Z,69.90
2022-08-24T01:26:29.835Z,69.80
2022-08-24T01:29:04.048Z,70.00
2022-08-24T01:31:33.219Z,70.00
2022-08-24T01:34:01.203Z,70.80
2022-08-24T01:36:33.966Z,70.10
2022-08-24T01:39:10.902Z,70.20
2022-08-24T01:41:38.877Z,70.10
2022-08-24T01:44:07.352Z,69.70
2022-08-24T01:46:35.449Z,70.40
2022-08-24T01:49:17.371Z,71.30
2022-08-24T01:51:46.219Z,71.30
2022-08-24T01:54:16.637Z,71.40
2022-08-24T01:56:44.935Z,71.40
2022-08-24T01:59:13.772Z,71.00
2022-08-24T02:01:46.687Z,70.80
2022-08-24T02:04:17.886Z,70.90
2022-08-24T02:06:47.210Z,71.40
2022-08-24T02:09:17.115Z,70.50
2022-08-24T02:11:45.347Z,71.00
2022-08-24T02:14:13.583Z,71.20
2022-08-24T02:16:43.399Z,71.90
2022-08-24T02:19:11.493Z,71.30
2022-08-24T02:21:40.015Z,70.80
2022-08-24T02:24:08.847Z,71.30
2022-08-24T02:26:38.180Z,71.60
2022-08-24T02:29:06.345Z,71.80
2022-08-24T02:31:36.890Z,71.60
2022-08-24T02:34:05.604Z,71.40
2022-08-24T02:36:33.565Z,71.20
2022-08-24T02:39:01.506Z,70.90
2022-08-24T02:41:29.727Z,71.40
2022-08-24T02:43:59.573Z,71.10
2022-08-24T02:46:29.310Z,71.70
2022-08-24T02:49:10.368Z,72.00
2022-08-24T02:51:45.032Z,72.40
2022-08-24T02:54:17.524Z,72.50
2022-08-24T02:56:45.479Z,72.40
2022-08-24T02:59:15.405Z,72.20
2022-08-24T03:01:43.790Z,72.00
2022-08-24T03:04:13.107Z,72.50
2022-08-24T03:06:41.175Z,72.50
2022-08-24T03:09:09.827Z,72.50
2022-08-24T03:11:38.191Z,72.50
2022-08-24T03:14:06.454Z,72.50
2022-08-24T03:16:38.520Z,72.20
2022-08-24T03:19:06.474Z,72.60
2022-08-24T03:21:34.424Z,72.90
2022-08-24T03:24:02.382Z,72.80
2022-08-24T03:26:30.384Z,72.80
2022-08-24T03:28:59.025Z,72.80
2022-08-24T03:31:28.309Z,72.90
2022-08-24T03:33:57.660Z,73.60
2022-08-24T03:36:25.738Z,73.00
2022-08-24T03:38:53.651Z,73.10
2022-08-24T03:41:21.654Z,73.20
2022-08-24T03:43:49.744Z,73.10
2022-08-24T03:46:20.380Z,72.80
2022-08-24T03:48:48.997Z,72.80
2022-08-24T03:51:20.789Z,72.60
2022-08-24T03:53:48.740Z,72.70
2022-08-24T03:56:16.952Z,73.10
2022-08-24T03:58:45.203Z,73.30
2022-08-24T04:01:13.815Z,73.20
2022-08-24T04:03:43.367Z,73.20
2022-08-24T04:06:12.201Z,73.20
2022-08-24T04:08:43.012Z,73.50
2022-08-24T04:11:12.594Z,73.90
2022-08-24T04:13:40.801Z,74.00
2022-08-24T04:16:11.447Z,74.60
2022-08-24T04:18:39.951Z,73.70
2022-08-24T04:21:08.142Z,73.40
2022-08-24T04:23:46.913Z,73.60
2022-08-24T04:26:34.758Z,73.60
2022-08-24T04:29:09.344Z,73.90
2022-08-24T04:31:37.748Z,73.90
2022-08-24T04:34:06.874Z,73.90
2022-08-24T04:36:35.334Z,74.10
2022-08-24T04:39:05.311Z,74.20
2022-08-24T04:41:34.664Z,74.40
2022-08-24T04:44:03.393Z,75.10
2022-08-24T04:46:32.057Z,74.20
2022-08-24T04:49:00.047Z,74.40
2022-08-24T04:51:32.804Z,75.20
2022-08-24T04:54:05.407Z,75.20
2022-08-24T04:56:35.582Z,74.80
2022-08-24T04:59:05.461Z,75.20
2022-08-24T05:01:33.698Z,74.50
2022-08-24T05:04:02.741Z,75.40
2022-08-24T05:06:32.410Z,74.90
2022-08-24T05:09:01.403Z,74.90
2022-08-24T05:11:29.546Z,74.70
2022-08-24T05:13:59.561Z,74.70
2022-08-24T05:16:28.523Z,74.90
2022-08-24T05:18:58.813Z,75.20
2022-08-24T05:21:28.192Z,75.60
2022-08-24T05:23:56.293Z,75.80
2022-08-24T05:26:25.966Z,76.10
2022-08-24T05:28:56.103Z,76.20
2022-08-24T05:31:28.918Z,76.40
2022-08-24T05:33:57.211Z,76.10
2022-08-24T05:36:27.898Z,76.60
2022-08-24T05:38:57.910Z,76.30
2022-08-24T05:41:26.282Z,76.30
2022-08-24T05:43:54.991Z,76.40
2022-08-24T05:46:23.010Z,76.90
2022-08-24T05:48:53.365Z,77.20
2022-08-24T05:51:22.137Z,77.80
2022-08-24T05:53:50.131Z,78.40
2022-08-24T05:56:20.466Z,78.40
2022-08-24T05:58:48.831Z,79.20
2022-08-24T06:01:18.297Z,79.20
2022-08-24T06:03:46.565Z,78.90
2022-08-24T06:06:17.292Z,79.40
2022-08-24T06:08:47.265Z,79.90
2022-08-24T06:11:24.796Z,81.10
2022-08-24T06:14:00.810Z,82.50
2022-08-24T06:16:30.058Z,82.90
2022-08-24T06:18:58.159Z,82.50
2022-08-24T06:21:28.938Z,82.20
2022-08-24T06:23:57.385Z,81.90
2022-08-24T06:26:43.029Z,82.00
2022-08-24T06:29:13.279Z,82.60
2022-08-24T06:31:43.644Z,81.70
2022-08-24T06:34:16.886Z,81.30
2022-08-24T06:36:47.638Z,81.20
2022-08-24T06:39:15.642Z,81.00
2022-08-24T06:41:45.541Z,80.80
2022-08-24T06:44:13.482Z,80.70
2022-08-24T06:46:41.525Z,80.50
2022-08-24T06:49:09.601Z,80.40
2022-08-24T06:51:37.550Z,80.90
2022-08-24T06:54:07.048Z,80.80
2022-08-24T06:56:37.286Z,80.00
2022-08-24T06:59:05.781Z,79.80
2022-08-24T07:01:33.793Z,79.80
2022-08-24T07:04:02.244Z,80.10
2022-08-24T07:06:30.285Z,79.50
2022-08-24T07:08:58.246Z,79.40
2022-08-24T07:11:27.894Z,79.40
2022-08-24T07:13:55.901Z,79.90
2022-08-24T07:16:24.219Z,79.30
2022-08-24T07:18:52.870Z,80.80
2022-08-24T07:21:22.170Z,79.10
2022-08-24T07:23:51.208Z,79.20
2022-08-24T07:26:22.780Z,79.20
2022-08-24T07:28:53.057Z,79.00
2022-08-24T07:31:21.991Z,78.60
2022-08-24T07:33:50.059Z,78.30
2022-08-24T07:36:22.215Z,78.10
2022-08-24T07:38:52.750Z,77.90
2022-08-24T07:41:46.950Z,77.80
2022-08-24T07:44:12.323Z,76.90
2022-08-24T07:46:41.691Z,75.70
2022-08-24T07:49:20.308Z,75.80
2022-08-24T07:51:58.976Z,75.80
2022-08-24T07:54:28.694Z,75.30
2022-08-24T07:56:56.799Z,75.30
2022-08-24T07:59:26.177Z,75.50
2022-08-24T08:01:54.205Z,75.10
2022-08-24T08:04:25.429Z,73.20
2022-08-24T08:06:58.251Z,73.10
2022-08-24T08:09:27.013Z,73.00
2022-08-24T08:11:54.983Z,72.90
2022-08-24T08:14:22.940Z,73.30
2022-08-24T08:16:52.511Z,72.50
2022-08-24T08:19:20.585Z,73.00
2022-08-24T08:22:08.539Z,73.20
2022-08-24T08:24:39.618Z,73.20
2022-08-24T08:27:07.842Z,66.80
2022-08-24T08:29:36.319Z,68.20
2022-08-24T08:32:05.954Z,71.20
2022-08-24T08:34:34.059Z,70.80
2022-08-24T08:37:03.571Z,71.60
2022-08-24T08:39:32.704Z,71.60
2022-08-24T08:42:17.299Z,71.20
2022-08-24T08:45:06.721Z,71.40
2022-08-24T08:50:39.802Z,70.30
2022-08-24T08:53:45.375Z,65.70
2022-08-24T08:56:34.672Z,65.90
2022-08-24T08:59:08.315Z,70.10
2022-08-24T09:01:47.804Z,63.90
2022-08-24T09:04:48.949Z,62.40
2022-08-24T09:07:28.618Z,61.70
2022-08-24T09:10:20.772Z,68.80
2022-08-24T09:13:00.203Z,64.80
2022-08-24T09:15:46.544Z,68.50
2022-08-24T09:18:24.997Z,69.40
2022-08-24T09:21:12.092Z,69.60
2022-08-24T09:23:55.125Z,69.10
2022-08-24T09:26:29.085Z,66.70
2022-08-24T09:29:10.738Z,69.50
2022-08-24T09:32:20.277Z,63.40
2022-08-24T09:34:57.021Z,63.70
2022-08-24T09:37:34.595Z,68.70
2022-08-24T09:40:18.327Z,69.00
2022-08-24T09:43:24.216Z,67.50
2022-08-24T09:46:16.275Z,65.10
2022-08-24T09:49:13.635Z,69.00
2022-08-24T09:52:18.551Z,65.40
2022-08-24T09:55:07.521Z,64.70
2022-08-24T09:58:01.054Z,64.80
2022-08-24T10:00:34.561Z,66.30
2022-08-24T10:03:37.884Z,69.10
2022-08-24T10:06:18.649Z,64.90
2022-08-24T10:09:08.215Z,67.60
2022-08-24T10:11:46.498Z,66.60
2022-08-24T10:14:28.470Z,64.80
2022-08-24T10:17:06.040Z,67.30
2022-08-24T10:19:48.991Z,64.80
2022-08-24T10:22:29.218Z,63.40
2022-08-24T10:25:10.379Z,62.90
2022-08-24T10:27:50.726Z,65.30
2022-08-24T10:30:41.153Z,64.50
2022-08-24T10:33:18.547Z,63.30
2022-08-24T10:36:07.100Z,64.20
2022-08-24T10:39:04.778Z,65.00
2022-08-24T10:42:54.439Z,63.10
2022-08-24T10:45:50.864Z,63.80
2022-08-24T10:48:45.518Z,63.00
2022-08-24T10:51:30.051Z,61.80
2022-08-24T10:53:58.954Z,63.20
2022-08-24T10:56:40.324Z,62.80
2022-08-24T10:59:21.854Z,62.70
2022-08-24T11:02:12.396Z,61.00
2022-08-24T11:04:41.559Z,62.30
2022-08-24T11:07:17.861Z,62.70
2022-08-24T11:09:51.651Z,62.40
2022-08-24T11:12:27.611Z,60.60
2022-08-24T11:14:58.430Z,63.10
2022-08-24T11:17:30.659Z,62.20
2022-08-24T11:19:59.539Z,61.70
2022-08-24T11:22:40.632Z,61.30
2022-08-24T11:25:15.505Z,59.10
2022-08-24T11:27:47.240Z,58.90
2022-08-24T11:30:23.369Z,60.00
2022-08-24T11:32:57.401Z,60.40
2022-08-24T11:35:27.738Z,59.40
2022-08-24T11:37:59.190Z,58.70
2022-08-24T11:40:30.752Z,58.50
2022-08-24T11:43:21.026Z,58.60
2022-08-24T11:46:01.567Z,57.90
2022-08-24T11:48:43.536Z,56.80
2022-08-24T11:51:26.431Z,58.40
2022-08-24T11:54:04.393Z,58.40
2022-08-24T11:56:42.310Z,58.70
2022-08-24T11:59:18.675Z,59.40
2022-08-24T12:01:52.341Z,59.40
2022-08-24T12:04:47.462Z,59.50
2022-08-24T12:07:24.140Z,57.90
2022-08-24T12:10:06.353Z,58.40
2022-08-24T12:12:43.537Z,60.10
2022-08-24T12:15:17.235Z,57.90
2022-08-24T12:17:50.576Z,57.50
2022-08-24T12:20:27.416Z,56.90
2022-08-24T12:22:59.865Z,57.40
2022-08-24T12:25:48.666Z,57.80
2022-08-24T12:28:23.887Z,56.50
2022-08-24T12:30:53.892Z,58.10
2022-08-24T12:33:26.919Z,58.50
2022-08-24T12:36:01.374Z,58.70
2022-08-24T12:38:34.159Z,54.60
2022-08-24T12:41:14.642Z,55.20
2022-08-24T12:43:50.670Z,55.30
2022-08-24T12:46:23.431Z,54.50
2022-08-24T12:48:56.724Z,54.50
2022-08-24T12:51:31.726Z,53.70
2022-08-24T12:54:22.961Z,55.60
2022-08-24T12:57:19.656Z,59.00
2022-08-24T12:59:51.228Z,53.70
2022-08-24T13:02:36.646Z,55.40
2022-08-24T13:05:15.305Z,55.40
2022-08-24T13:07:48.687Z,56.10
2022-08-24T13:10:38.771Z,56.00
2022-08-24T13:13:16.609Z,53.30
2022-08-24T13:16:00.581Z,52.10
2022-08-24T13:19:06.739Z,53.90
2022-08-24T13:21:51.877Z,53.70
2022-08-24T13:25:03.223Z,54.00
2022-08-24T13:28:03.603Z,54.60
2022-08-24T13:30:55.161Z,52.40
2022-08-24T13:33:30.383Z,53.70
2022-08-24T13:36:06.576Z,53.10
2022-08-24T13:38:59.336Z,52.20
2022-08-24T13:41:48.573Z,52.60
2022-08-24T13:44:28.004Z,53.80
2022-08-24T13:47:07.793Z,52.00
2022-08-24T13:49:51.504Z,52.00
2022-08-24T13:52:32.749Z,53.90
2022-08-24T13:55:13.291Z,52.90
2022-08-24T13:57:46.083Z,53.50
2022-08-24T14:00:39.587Z,52.60
2022-08-24T14:03:44.869Z,52.50
2022-08-24T14:06:33.214Z,51.70
2022-08-24T14:09:19.249Z,52.30
2022-08-24T14:12:07.492Z,54.10
2022-08-24T14:14:55.648Z,53.00
2022-08-24T14:17:46.957Z,54.30
2022-08-24T14:20:33.365Z,54.20
2022-08-24T14:23:07.123Z,54.20
2022-08-24T14:25:37.052Z,51.20
2022-08-24T14:28:26.263Z,52.80
2022-08-24T14:31:21.998Z,52.70
2022-08-24T14:34:02.390Z,54.50
2022-08-24T14:36:47.410Z,51.20
2022-08-24T14:39:29.328Z,51.50
2022-08-24T14:42:16.343Z,52.00
2022-08-24T14:45:04.300Z,51.30
2022-08-24T14:47:47.075Z,52.10
2022-08-24T14:50:18.165Z,50.80
2022-08-24T14:52:55.861Z,50.80
2022-08-24T14:55:31.760Z,50.90
2022-08-24T14:58:17.594Z,52.30
2022-08-24T15:01:24.260Z,52.00
2022-08-24T15:04:16.903Z,52.50
2022-08-24T15:07:26.960Z,52.40
2022-08-24T15:09:56.702Z,50.50
2022-08-24T15:12:37.060Z,53.20
2022-08-24T15:15:11.659Z,50.30
2022-08-24T15:17:54.434Z,50.60
2022-08-24T15:20:45.415Z,50.70
2022-08-24T15:23:20.491Z,50.50
2022-08-24T15:25:54.431Z,52.70
2022-08-24T15:28:26.522Z,51.90
2022-08-24T15:30:57.360Z,52.60
2022-08-24T15:33:25.885Z,51.00
2022-08-24T15:36:09.500Z,49.30
2022-08-24T15:38:39.747Z,49.30
2022-08-24T15:41:11.840Z,50.70
2022-08-24T15:43:45.105Z,50.60
2022-08-24T15:46:14.520Z,52.40
2022-08-24T15:48:47.737Z,51.20
2022-08-24T15:51:34.678Z,51.60
2022-08-24T15:54:19.634Z,51.60
2022-08-24T15:56:53.606Z,51.10
2022-08-24T15:59:28.615Z,51.00
2022-08-24T16:02:31.338Z,51.90
2022-08-24T16:05:14.336Z,51.90
2022-08-24T16:08:13.268Z,52.20
2022-08-24T16:10:44.707Z,51.80
2022-08-24T16:13:28.168Z,53.50
2022-08-24T16:16:02.803Z,52.20
2022-08-24T16:18:47.279Z,53.30
2022-08-24T16:21:21.021Z,53.20
2022-08-24T16:24:00.792Z,52.70
2022-08-24T16:26:31.099Z,51.40
2022-08-24T16:29:00.078Z,51.70
2022-08-24T16:31:51.728Z,50.80
2022-08-24T16:34:24.744Z,50.70
2022-08-24T16:36:52.663Z,51.10
2022-08-24T16:39:22.165Z,51.10
2022-08-24T16:41:51.270Z,51.60
2022-08-24T16:44:19.197Z,52.00
2022-08-24T16:46:53.919Z,51.20
2022-08-24T16:49:21.973Z,51.60
2022-08-24T16:51:49.995Z,50.60
2022-08-24T16:54:17.935Z,51.00
2022-08-24T16:56:47.626Z,52.50
2022-08-24T16:59:19.645Z,50.50
2022-08-24T17:01:50.329Z,50.80
2022-08-24T17:04:18.452Z,51.30
2022-08-24T17:06:47.939Z,50.50
2022-08-24T17:09:15.827Z,53.10
2022-08-24T17:11:43.772Z,51.60
2022-08-24T17:14:13.012Z,50.70
2022-08-24T17:16:41.135Z,51.50
2022-08-24T17:19:12.541Z,54.10
2022-08-24T17:21:42.211Z,52.10
2022-08-24T17:24:11.584Z,54.60
2022-08-24T17:26:45.773Z,55.00
2022-08-24T17:29:20.383Z,51.50
2022-08-24T17:31:49.944Z,50.70
2022-08-24T17:34:20.343Z,51.40
2022-08-24T17:36:49.324Z,54.10
2022-08-24T17:39:18.825Z,53.60
2022-08-24T17:41:47.254Z,54.40
2022-08-24T17:44:20.972Z,52.70
2022-08-24T17:46:51.391Z,54.10
2022-08-24T17:49:19.631Z,54.10
2022-08-24T17:51:49.227Z,53.20
2022-08-24T17:54:17.380Z,53.80
2022-08-24T17:56:48.611Z,54.80
2022-08-24T17:59:23.760Z,54.60
2022-08-24T18:01:54.412Z,54.40
2022-08-24T18:04:27.406Z,53.70
2022-08-24T18:06:56.032Z,53.70
2022-08-24T18:09:31.062Z,54.10
2022-08-24T18:12:04.125Z,55.10
2022-08-24T18:14:34.559Z,54.70
2022-08-24T18:17:06.253Z,54.80
2022-08-24T18:19:36.101Z,55.10
2022-08-24T18:22:04.512Z,55.00
2022-08-24T18:24:33.178Z,55.20
2022-08-24T18:27:01.868Z,55.10
2022-08-24T18:29:30.803Z,55.90
2022-08-24T18:32:02.866Z,56.00
2022-08-24T18:34:32.473Z,56.10
2022-08-24T18:37:00.384Z,55.70
2022-08-24T18:39:28.646Z,55.80
2022-08-24T18:41:58.851Z,55.70
2022-08-24T18:44:31.448Z,55.70
2022-08-24T18:46:59.900Z,55.80
2022-08-24T18:49:29.440Z,55.90
2022-08-24T18:51:58.026Z,56.50
2022-08-24T18:54:29.059Z,56.90
2022-08-24T18:56:57.114Z,56.30
2022-08-24T18:59:25.065Z,57.00
2022-08-24T19:02:10.966Z,56.20
2022-08-24T19:04:44.570Z,56.20
2022-08-24T19:07:12.978Z,58.50
2022-08-24T19:09:41.663Z,58.70
2022-08-24T19:12:10.312Z,58.20
2022-08-24T19:14:42.344Z,57.90
2022-08-24T19:17:12.536Z,58.60
2022-08-24T19:19:41.893Z,58.40
2022-08-24T19:22:10.591Z,58.60
2022-08-24T19:24:39.735Z,58.70
2022-08-24T19:27:07.802Z,58.80
2022-08-24T19:32:27.579Z,58.90
2022-08-24T19:34:59.357Z,58.80
2022-08-24T19:37:27.378Z,58.80
2022-08-24T19:39:55.331Z,58.70
2022-08-24T19:42:25.516Z,58.70
2022-08-24T19:45:12.444Z,59.00
2022-08-24T19:47:40.716Z,58.30
2022-08-24T19:50:11.434Z,58.20
2022-08-24T19:52:40.435Z,58.10
2022-08-24T19:55:10.059Z,58.10
2022-08-24T19:57:44.460Z,58.00
2022-08-24T20:00:26.264Z,57.90
2022-08-24T20:02:56.315Z,57.80
2022-08-24T20:05:28.245Z,57.90
2022-08-24T20:07:56.416Z,58.10
2022-08-24T20:10:25.551Z,58.20
2022-08-24T20:12:53.996Z,58.40
2022-08-24T20:15:23.078Z,58.50
2022-08-24T20:17:52.080Z,58.40
2022-08-24T20:20:22.771Z,58.60
2022-08-24T20:22:52.408Z,58.60
2022-08-24T20:25:20.872Z,58.70
2022-08-24T20:27:55.032Z,58.60
2022-08-24T20:30:35.772Z,58.60
2022-08-24T20:33:03.954Z,58.50
2022-08-24T20:35:32.009Z,58.50
2022-08-24T20:38:01.694Z,58.60
2022-08-24T20:40:29.682Z,58.60
2022-08-24T20:42:57.618Z,58.50
2022-08-24T20:45:25.632Z,58.40
2022-08-24T20:47:54.837Z,58.60
2022-08-24T20:50:26.217Z,58.60
2022-08-24T20:52:55.774Z,58.70
2022-08-24T20:55:25.803Z,58.70
2022-08-24T20:58:00.001Z,58.90
2022-08-24T21:00:29.373Z,58.90
2022-08-24T21:02:58.019Z,59.00
2022-08-24T21:05:25.993Z,59.00
2022-08-24T21:07:57.166Z,59.10
2022-08-24T21:10:27.311Z,59.20
2022-08-24T21:12:56.123Z,59.80
2022-08-24T21:15:24.059Z,59.20
2022-08-24T21:17:52.231Z,59.20
2022-08-24T21:20:21.043Z,59.10
2022-08-24T21:22:49.684Z,59.10
2022-08-24T21:25:18.459Z,58.90
2022-08-24T21:27:48.909Z,58.80
2022-08-24T21:30:19.657Z,58.70
2022-08-24T21:33:05.276Z,58.60
2022-08-24T21:35:34.142Z,58.60
2022-08-24T21:38:02.202Z,58.80
2022-08-24T21:40:30.348Z,59.30
2022-08-24T21:42:59.782Z,58.90
2022-08-24T21:45:28.178Z,59.10
2022-08-24T21:47:56.189Z,59.40
2022-08-24T21:50:26.196Z,59.60
2022-08-24T21:52:54.606Z,59.60
2022-08-24T21:55:22.903Z,59.50
2022-08-24T21:57:51.053Z,59.80
2022-08-24T22:00:23.143Z,59.80
2022-08-24T22:02:51.439Z,59.90
2022-08-24T22:05:20.362Z,59.90
2022-08-24T22:07:48.691Z,59.80
2022-08-24T22:10:16.653Z,59.80
2022-08-24T22:12:44.706Z,60.20
2022-08-24T22:15:15.735Z,60.20
2022-08-24T22:17:45.403Z,60.20
2022-08-24T22:20:16.066Z,60.40
2022-08-24T22:22:51.078Z,60.40
2022-08-24T22:25:19.355Z,60.10
2022-08-24T22:27:47.582Z,60.30
2022-08-24T22:30:17.699Z,60.10
2022-08-24T22:32:47.446Z,60.30
2022-08-24T22:35:15.908Z,60.50
2022-08-24T22:37:43.917Z,60.50
2022-08-24T22:40:13.056Z,60.50
2022-08-24T22:42:41.512Z,60.60
2022-08-24T22:45:10.996Z,60.60
2022-08-24T22:47:39.475Z,60.60
2022-08-24T22:50:09.887Z,60.30
2022-08-24T22:52:37.864Z,60.80
2022-08-24T22:55:06.569Z,61.40
2022-08-24T22:57:34.590Z,60.90
2022-08-24T23:00:02.589Z,60.90
2022-08-24T23:02:30.677Z,61.00
2022-08-24T23:04:58.744Z,61.10
2022-08-24T23:07:28.041Z,60.90
2022-08-24T23:09:56.226Z,61.00
2022-08-24T23:12:26.378Z,60.50
2022-08-24T23:14:54.486Z,60.60
2022-08-24T23:17:23.538Z,61.30
2022-08-24T23:20:06.323Z,61.50
2022-08-24T23:22:38.295Z,61.40
2022-08-24T23:25:07.499Z,61.50
2022-08-24T23:27:37.849Z,61.40
2022-08-24T23:30:09.667Z,61.50
2022-08-24T23:32:38.021Z,61.70
2022-08-24T23:35:07.060Z,61.60
2022-08-24T23:37:36.454Z,61.80
2022-08-24T23:40:06.511Z,61.80
2022-08-24T23:42:34.504Z,61.60
2022-08-24T23:45:02.501Z,61.90
2022-08-24T23:47:30.565Z,61.30
2022-08-24T23:50:04.157Z,61.90
2022-08-24T23:52:40.610Z,62.00
2022-08-24T23:55:20.224Z,62.00
2022-08-24T23:57:50.102Z,62.10
